Portada
Imágenes satélite Pronóstico 10 díasClimaPredicción Marítima Ciclones Rayo AeropuertosFAQ Noticias Acerca
El tiempo : Europa África América del Norte América del Sur Asia Australia-Oceanía Otros
Idiomas Contacto

Chichén Itzá, México

Aeropuerto Internacional de Kaua

latitud: 20-38-30N, longitud: 088-26-58W, altitud: 31 m


METAR: MMCT 062040Z 10010KT 8SM BKN020 36/19 A3002 RMK 8/100 MSGTX MMMD
TAF: falta

Hora: 03:51 (08:51 UTC)

Observación

El informe se hizo hace 12 horas y 11 minutos, a las 20:40 UTC
Viento 10 kt del este
Temperatura 36°C
Humedad 37%
Presión 1017 hPa
Visibilidad: 12.9 km
Cielo nuboso a una altura de 2000 ft

Cambiar las unidades
La información que se ofrece en estas páginas está sujeta a una cláusula de exención de responsabilidad
El tiempo : Europa África América del Norte América del Sur Asia Australia-Oceanía Otros
Imágenes satélite Pronóstico 10 díasClimaPredicción Marítima Ciclones Rayo AeropuertosFAQ Idiomas Contacto Noticias Acerca